Wiley Ford, West Virginia
Current Conditions -  °F | °C
As of 10:20 PM on Monday 26 Jan 2015 (Local Time) from KCBE Reporting Station
Overcast Overcast  
Wind Chill: 28°   Ceiling: 800
Heat Index: 28°   Visibility: 2.5mi
Dew Point: 27°   Wind: 0mph
Humidity: 93%   Direction: NA
Pressure: 29.84"   Gusts: NA
Location:  39.62°N, 78.77°W
Report Text: KCBE 270320Z AUTO 00000KT 2 1/2SM OVC008 M02/M03 A2984 RMK AO1
Loading
Personal Weather Stations






























Interactive Weather Map New forecast layout! Learn more

10-Day Weather Forecast

Advertisements
Track Severe Weather on mobile